This is the latest recevied weather packets stored in our database for station/object p43g-13. If no packets are shown the sender has not sent any weather packets the latest 10 day(s).
| Time | Temp. | Humidity | Pressure | Rain* | Wind** | Luminosity | Snow |
|---|---|---|---|---|---|---|---|
| 1787591309 | 32.78° C | 71% | 1011.5 hPa | 0 mm | - | 914 W/m² | - |
| 1787591009 | 32.22° C | 73% | 1011.8 hPa | 0 mm | - | 1030 W/m² | - |
| 1787590709 | 32.22° C | 74% | 1011.6 hPa | 0 mm | - | 776 W/m² | - |
| 1787590409 | 32.22° C | 73% | 1011.7 hPa | 0 mm | - | 1060 W/m² | - |
| 1787590110 | 32.78° C | 73% | 1011.9 hPa | 0 mm | - | 1046 W/m² | - |
| 1787589809 | 32.22° C | 73% | 1011.9 hPa | 0 mm | - | 345 W/m² | - |
| 1787589510 | 32.22° C | 73% | 1011.7 hPa | 0 mm | - | 996 W/m² | - |
| 1787589209 | 32.22° C | 72% | 1011.8 hPa | 0 mm | - | 968 W/m² | - |
| 1787588910 | 32.22° C | 73% | 1012.1 hPa | 0 mm | - | 199 W/m² | - |
| 1787588609 | 32.22° C | 72% | 1012.1 hPa | 0 mm | - | 503 W/m² | - |
| 1787588310 | 32.22° C | 73% | 1012.1 hPa | 0 mm | - | 999 W/m² | - |
| 1787588009 | 32.78° C | 71% | 1012.3 hPa | 0 mm | - | 1037 W/m² | - |
| 1787587709 | 32.78° C | 69% | 1012.5 hPa | 0 mm | - | 962 W/m² | - |
| 1787587409 | 32.22° C | 69% | 1012.3 hPa | 0 mm | - | 979 W/m² | - |
| 1787587109 | 32.78° C | 70% | 1012.3 hPa | 0 mm | - | 953 W/m² | - |
| 1787586809 | 31.67° C | 72% | 1012.2 hPa | 0 mm | - | 875 W/m² | - |
| 1787586509 | 32.78° C | 69% | 1012.6 hPa | 0 mm | - | 869 W/m² | - |
| 1787586209 | 32.22° C | 72% | 1012.5 hPa | 0 mm | - | 848 W/m² | - |
| 1787585908 | 31.67° C | 71% | 1012.4 hPa | 0 mm | - | 263 W/m² | - |
| 1787585609 | 31.67° C | 72% | 1012.1 hPa | 0 mm | - | 956 W/m² | - |
| 1787585309 | 31.67° C | 72% | 1012.7 hPa | 0 mm | - | 914 W/m² | - |
| 1787585009 | 31.67° C | 72% | 1012.8 hPa | 0 mm | - | 901 W/m² | - |
| 1787584709 | 31.67° C | 73% | 1012.6 hPa | 0 mm | - | 934 W/m² | - |
| 1787584409 | 32.22° C | 73% | 1012.8 hPa | 0 mm | - | 616 W/m² | - |
| 1787584109 | 31.67° C | 75% | 1012.6 hPa | 0 mm | - | 888 W/m² | - |
* Rain latest hour (hover to see other rain measurements)
** Current wind speed in m/s (hover to see current wind gust speed)